sensor_id;sensor_type;location;lat;lon;timestamp;temperature;humidity
1704;DHT22;849;48.780;9.216;2022-09-02T00:01:15;18.30;99.90
1704;DHT22;849;48.780;9.216;2022-09-02T00:03:42;18.20;99.90
1704;DHT22;849;48.780;9.216;2022-09-02T00:06:09;18.20;99.90
1704;DHT22;849;48.780;9.216;2022-09-02T00:08:35;18.10;99.90
1704;DHT22;849;48.780;9.216;2022-09-02T00:11:01;18.10;99.90
1704;DHT22;849;48.780;9.216;2022-09-02T00:13:31;18.20;99.90
1704;DHT22;849;48.780;9.216;2022-09-02T00:15:57;18.20;99.90
1704;DHT22;849;48.780;9.216;2022-09-02T00:18:22;18.20;99.90
1704;DHT22;849;48.780;9.216;2022-09-02T00:20:51;18.20;99.90
1704;DHT22;849;48.780;9.216;2022-09-02T00:23:17;18.20;99.90
1704;DHT22;849;48.780;9.216;2022-09-02T00:25:44;18.10;99.90
1704;DHT22;849;48.780;9.216;2022-09-02T00:28:11;18.10;99.90
1704;DHT22;849;48.780;9.216;2022-09-02T00:30:37;18.00;99.90
1704;DHT22;849;48.780;9.216;2022-09-02T00:33:04;17.90;99.90
1704;DHT22;849;48.780;9.216;2022-09-02T00:35:30;17.90;99.90
1704;DHT22;849;48.780;9.216;2022-09-02T00:37:56;17.80;99.90
1704;DHT22;849;48.780;9.216;2022-09-02T00:40:22;17.80;99.90
1704;DHT22;849;48.780;9.216;2022-09-02T00:42:49;17.90;99.90
1704;DHT22;849;48.780;9.216;2022-09-02T00:45:15;17.80;99.90
1704;DHT22;849;48.780;9.216;2022-09-02T00:47:43;17.80;99.90
1704;DHT22;849;48.780;9.216;2022-09-02T00:50:12;17.80;99.90
1704;DHT22;849;48.780;9.216;2022-09-02T00:52:49;17.70;99.90
1704;DHT22;849;48.780;9.216;2022-09-02T00:55:20;17.70;99.90
1704;DHT22;849;48.780;9.216;2022-09-02T00:58:12;17.70;99.90
1704;DHT22;849;48.780;9.216;2022-09-02T01:00:37;17.70;99.90
1704;DHT22;849;48.780;9.216;2022-09-02T01:03:08;17.70;99.90
1704;DHT22;849;48.780;9.216;2022-09-02T01:05:38;17.70;99.90
1704;DHT22;849;48.780;9.216;2022-09-02T01:08:04;17.60;99.90
1704;DHT22;849;48.780;9.216;2022-09-02T01:10:33;17.60;99.90
1704;DHT22;849;48.780;9.216;2022-09-02T01:13:05;17.60;99.90
1704;DHT22;849;48.780;9.216;2022-09-02T01:15:38;17.50;99.90
1704;DHT22;849;48.780;9.216;2022-09-02T01:18:06;17.50;99.90
1704;DHT22;849;48.780;9.216;2022-09-02T01:20:33;17.50;99.90
1704;DHT22;849;48.780;9.216;2022-09-02T01:22:59;17.40;99.90
1704;DHT22;849;48.780;9.216;2022-09-02T01:25:30;17.40;99.90
1704;DHT22;849;48.780;9.216;2022-09-02T01:28:22;17.40;99.90
1704;DHT22;849;48.780;9.216;2022-09-02T01:30:51;17.30;99.90
1704;DHT22;849;48.780;9.216;2022-09-02T01:33:19;17.20;99.90
1704;DHT22;849;48.780;9.216;2022-09-02T01:35:45;17.10;99.90
1704;DHT22;849;48.780;9.216;2022-09-02T01:38:11;17.10;99.90
1704;DHT22;849;48.780;9.216;2022-09-02T01:40:37;17.00;99.90
1704;DHT22;849;48.780;9.216;2022-09-02T01:43:13;17.00;99.90
1704;DHT22;849;48.780;9.216;2022-09-02T01:45:42;17.10;99.90
1704;DHT22;849;48.780;9.216;2022-09-02T01:48:08;17.00;99.90
1704;DHT22;849;48.780;9.216;2022-09-02T01:50:37;16.90;99.90
1704;DHT22;849;48.780;9.216;2022-09-02T01:53:03;17.00;99.90
1704;DHT22;849;48.780;9.216;2022-09-02T01:55:30;17.00;99.90
1704;DHT22;849;48.780;9.216;2022-09-02T01:57:56;17.00;99.90
1704;DHT22;849;48.780;9.216;2022-09-02T02:00:23;17.20;99.90
1704;DHT22;849;48.780;9.216;2022-09-02T02:02:48;17.20;99.90
1704;DHT22;849;48.780;9.216;2022-09-02T02:05:14;17.00;99.90
1704;DHT22;849;48.780;9.216;2022-09-02T02:07:41;17.00;99.90
1704;DHT22;849;48.780;9.216;2022-09-02T02:10:08;16.80;99.90
1704;DHT22;849;48.780;9.216;2022-09-02T02:12:36;16.90;99.90
1704;DHT22;849;48.780;9.216;2022-09-02T02:15:05;16.90;99.90
1704;DHT22;849;48.780;9.216;2022-09-02T02:17:31;16.90;99.90
1704;DHT22;849;48.780;9.216;2022-09-02T02:19:57;16.80;99.90
1704;DHT22;849;48.780;9.216;2022-09-02T02:22:22;16.90;99.90
1704;DHT22;849;48.780;9.216;2022-09-02T02:24:48;16.90;99.90
1704;DHT22;849;48.780;9.216;2022-09-02T02:27:14;16.90;99.90
1704;DHT22;849;48.780;9.216;2022-09-02T02:29:40;16.90;99.90
1704;DHT22;849;48.780;9.216;2022-09-02T02:32:06;17.00;99.90
1704;DHT22;849;48.780;9.216;2022-09-02T02:34:33;17.00;99.90
1704;DHT22;849;48.780;9.216;2022-09-02T02:36:59;16.90;99.90
1704;DHT22;849;48.780;9.216;2022-09-02T02:39:25;17.00;99.90
1704;DHT22;849;48.780;9.216;2022-09-02T02:41:50;17.00;99.90
1704;DHT22;849;48.780;9.216;2022-09-02T02:44:16;16.90;99.90
1704;DHT22;849;48.780;9.216;2022-09-02T02:46:42;16.90;99.90
1704;DHT22;849;48.780;9.216;2022-09-02T02:49:08;16.90;99.90
1704;DHT22;849;48.780;9.216;2022-09-02T02:51:34;16.90;99.90
1704;DHT22;849;48.780;9.216;2022-09-02T02:54:01;16.80;99.90
1704;DHT22;849;48.780;9.216;2022-09-02T02:56:28;16.80;99.90
1704;DHT22;849;48.780;9.216;2022-09-02T02:58:55;16.70;99.90
1704;DHT22;849;48.780;9.216;2022-09-02T03:01:21;16.70;99.90
1704;DHT22;849;48.780;9.216;2022-09-02T03:03:47;16.70;99.90
1704;DHT22;849;48.780;9.216;2022-09-02T03:06:13;16.60;99.90
1704;DHT22;849;48.780;9.216;2022-09-02T03:08:39;16.60;99.90
1704;DHT22;849;48.780;9.216;2022-09-02T03:11:05;16.60;99.90
1704;DHT22;849;48.780;9.216;2022-09-02T03:13:32;16.60;99.90
1704;DHT22;849;48.780;9.216;2022-09-02T03:15:58;16.60;99.90
1704;DHT22;849;48.780;9.216;2022-09-02T03:18:24;16.60;99.90
1704;DHT22;849;48.780;9.216;2022-09-02T03:20:50;16.70;99.90
1704;DHT22;849;48.780;9.216;2022-09-02T03:23:16;16.60;99.90
1704;DHT22;849;48.780;9.216;2022-09-02T03:25:44;16.60;99.90
1704;DHT22;849;48.780;9.216;2022-09-02T03:28:10;16.50;99.90
1704;DHT22;849;48.780;9.216;2022-09-02T03:30:38;16.50;99.90
1704;DHT22;849;48.780;9.216;2022-09-02T03:33:04;16.50;99.90
1704;DHT22;849;48.780;9.216;2022-09-02T03:35:31;16.40;99.90
1704;DHT22;849;48.780;9.216;2022-09-02T03:37:58;16.40;99.90
1704;DHT22;849;48.780;9.216;2022-09-02T03:40:26;16.40;99.90
1704;DHT22;849;48.780;9.216;2022-09-02T03:42:53;16.50;99.90
1704;DHT22;849;48.780;9.216;2022-09-02T03:45:19;16.40;99.90
1704;DHT22;849;48.780;9.216;2022-09-02T03:47:45;16.40;99.90
1704;DHT22;849;48.780;9.216;2022-09-02T03:50:17;16.30;99.90
1704;DHT22;849;48.780;9.216;2022-09-02T03:52:43;16.30;99.90
1704;DHT22;849;48.780;9.216;2022-09-02T03:55:09;16.40;99.90
1704;DHT22;849;48.780;9.216;2022-09-02T03:57:35;16.30;99.90
1704;DHT22;849;48.780;9.216;2022-09-02T04:00:04;16.30;99.90
1704;DHT22;849;48.780;9.216;2022-09-02T04:02:32;16.30;99.90
1704;DHT22;849;48.780;9.216;2022-09-02T04:04:58;16.20;99.90
1704;DHT22;849;48.780;9.216;2022-09-02T04:07:24;16.10;99.90
1704;DHT22;849;48.780;9.216;2022-09-02T04:09:50;16.10;99.90
1704;DHT22;849;48.780;9.216;2022-09-02T04:12:15;16.10;99.90
1704;DHT22;849;48.780;9.216;2022-09-02T04:14:41;16.00;99.90
1704;DHT22;849;48.780;9.216;2022-09-02T04:17:07;16.00;99.90
1704;DHT22;849;48.780;9.216;2022-09-02T04:19:32;16.10;99.90
1704;DHT22;849;48.780;9.216;2022-09-02T04:21:58;16.10;99.90
1704;DHT22;849;48.780;9.216;2022-09-02T04:24:24;16.10;99.90
1704;DHT22;849;48.780;9.216;2022-09-02T04:26:50;16.10;99.90
1704;DHT22;849;48.780;9.216;2022-09-02T04:29:16;16.10;99.90
1704;DHT22;849;48.780;9.216;2022-09-02T04:31:42;16.10;99.90
1704;DHT22;849;48.780;9.216;2022-09-02T04:34:07;16.10;99.90
1704;DHT22;849;48.780;9.216;2022-09-02T04:36:33;16.10;99.90
1704;DHT22;849;48.780;9.216;2022-09-02T04:38:59;16.00;99.90
1704;DHT22;849;48.780;9.216;2022-09-02T04:41:27;16.00;99.90
1704;DHT22;849;48.780;9.216;2022-09-02T04:43:56;16.00;99.90
1704;DHT22;849;48.780;9.216;2022-09-02T04:46:22;15.90;99.90
1704;DHT22;849;48.780;9.216;2022-09-02T04:48:47;15.90;99.90
1704;DHT22;849;48.780;9.216;2022-09-02T04:51:19;15.90;99.90
1704;DHT22;849;48.780;9.216;2022-09-02T04:53:47;15.90;99.90
1704;DHT22;849;48.780;9.216;2022-09-02T04:56:16;16.00;99.90
1704;DHT22;849;48.780;9.216;2022-09-02T04:58:42;15.90;99.90
1704;DHT22;849;48.780;9.216;2022-09-02T05:01:14;16.00;99.90
1704;DHT22;849;48.780;9.216;2022-09-02T05:03:41;15.90;99.90
1704;DHT22;849;48.780;9.216;2022-09-02T05:06:09;15.90;99.90
1704;DHT22;849;48.780;9.216;2022-09-02T05:08:36;15.80;99.90
1704;DHT22;849;48.780;9.216;2022-09-02T05:11:09;15.80;99.90
1704;DHT22;849;48.780;9.216;2022-09-02T05:13:35;15.90;99.90
1704;DHT22;849;48.780;9.216;2022-09-02T05:16:02;15.90;99.90
1704;DHT22;849;48.780;9.216;2022-09-02T05:18:28;15.90;99.90
1704;DHT22;849;48.780;9.216;2022-09-02T05:20:54;15.90;99.90
1704;DHT22;849;48.780;9.216;2022-09-02T05:23:20;15.90;99.90
1704;DHT22;849;48.780;9.216;2022-09-02T05:25:46;15.90;99.90
1704;DHT22;849;48.780;9.216;2022-09-02T05:28:11;16.00;99.90
1704;DHT22;849;48.780;9.216;2022-09-02T05:30:39;16.00;99.90
1704;DHT22;849;48.780;9.216;2022-09-02T05:33:06;16.10;99.90
1704;DHT22;849;48.780;9.216;2022-09-02T05:35:32;16.00;99.90
1704;DHT22;849;48.780;9.216;2022-09-02T05:37:58;16.00;99.90
1704;DHT22;849;48.780;9.216;2022-09-02T05:40:24;16.00;99.90
1704;DHT22;849;48.780;9.216;2022-09-02T05:42:50;16.00;99.90
1704;DHT22;849;48.780;9.216;2022-09-02T05:45:16;16.00;99.90
1704;DHT22;849;48.780;9.216;2022-09-02T05:47:42;16.10;99.90
1704;DHT22;849;48.780;9.216;2022-09-02T05:50:08;16.20;99.90
1704;DHT22;849;48.780;9.216;2022-09-02T05:52:34;16.30;99.90
1704;DHT22;849;48.780;9.216;2022-09-02T05:54:59;16.30;99.90
1704;DHT22;849;48.780;9.216;2022-09-02T05:57:26;16.30;99.90
1704;DHT22;849;48.780;9.216;2022-09-02T05:59:52;16.40;99.90
1704;DHT22;849;48.780;9.216;2022-09-02T06:02:46;16.40;99.90
1704;DHT22;849;48.780;9.216;2022-09-02T06:05:12;16.40;99.90
1704;DHT22;849;48.780;9.216;2022-09-02T06:07:37;16.40;99.90
1704;DHT22;849;48.780;9.216;2022-09-02T06:10:04;16.50;99.90
1704;DHT22;849;48.780;9.216;2022-09-02T06:12:31;16.60;99.90
1704;DHT22;849;48.780;9.216;2022-09-02T06:14:57;16.60;99.90
1704;DHT22;849;48.780;9.216;2022-09-02T06:17:23;16.60;99.90
1704;DHT22;849;48.780;9.216;2022-09-02T06:19:49;16.70;99.90
1704;DHT22;849;48.780;9.216;2022-09-02T06:22:14;16.70;99.90
1704;DHT22;849;48.780;9.216;2022-09-02T06:24:40;16.80;99.90
1704;DHT22;849;48.780;9.216;2022-09-02T06:27:05;16.80;99.90
1704;DHT22;849;48.780;9.216;2022-09-02T06:29:31;16.80;99.90
1704;DHT22;849;48.780;9.216;2022-09-02T06:31:57;16.90;99.90
1704;DHT22;849;48.780;9.216;2022-09-02T06:34:23;17.00;99.90
1704;DHT22;849;48.780;9.216;2022-09-02T06:36:52;17.00;99.90
1704;DHT22;849;48.780;9.216;2022-09-02T06:39:20;17.00;99.90
1704;DHT22;849;48.780;9.216;2022-09-02T06:41:47;17.10;99.90
1704;DHT22;849;48.780;9.216;2022-09-02T06:44:14;17.20;99.90
1704;DHT22;849;48.780;9.216;2022-09-02T06:46:43;17.30;99.90
1704;DHT22;849;48.780;9.216;2022-09-02T06:49:11;17.20;99.90
1704;DHT22;849;48.780;9.216;2022-09-02T06:51:39;17.30;99.90
1704;DHT22;849;48.780;9.216;2022-09-02T06:54:08;17.40;99.90
1704;DHT22;849;48.780;9.216;2022-09-02T06:56:34;17.30;99.90
1704;DHT22;849;48.780;9.216;2022-09-02T06:59:01;17.00;99.90
1704;DHT22;849;48.780;9.216;2022-09-02T07:01:29;16.90;99.90
1704;DHT22;849;48.780;9.216;2022-09-02T07:03:55;16.90;99.90
1704;DHT22;849;48.780;9.216;2022-09-02T07:06:43;17.00;99.90
1704;DHT22;849;48.780;9.216;2022-09-02T07:09:17;17.20;99.90
1704;DHT22;849;48.780;9.216;2022-09-02T07:11:44;17.10;99.90
1704;DHT22;849;48.780;9.216;2022-09-02T07:14:40;17.20;99.90
1704;DHT22;849;48.780;9.216;2022-09-02T07:17:06;17.20;99.90
1704;DHT22;849;48.780;9.216;2022-09-02T07:19:32;17.30;99.90
1704;DHT22;849;48.780;9.216;2022-09-02T07:21:58;17.30;99.90
1704;DHT22;849;48.780;9.216;2022-09-02T07:24:23;17.40;99.90
1704;DHT22;849;48.780;9.216;2022-09-02T07:26:50;17.30;99.90
1704;DHT22;849;48.780;9.216;2022-09-02T07:29:16;17.40;99.90
1704;DHT22;849;48.780;9.216;2022-09-02T07:31:45;17.40;99.90
1704;DHT22;849;48.780;9.216;2022-09-02T07:34:12;17.50;99.90
1704;DHT22;849;48.780;9.216;2022-09-02T07:36:58;17.60;99.90
1704;DHT22;849;48.780;9.216;2022-09-02T07:39:24;17.70;99.90
1704;DHT22;849;48.780;9.216;2022-09-02T07:41:50;17.70;99.90
1704;DHT22;849;48.780;9.216;2022-09-02T07:44:18;17.90;99.90
1704;DHT22;849;48.780;9.216;2022-09-02T07:46:44;17.90;99.90
1704;DHT22;849;48.780;9.216;2022-09-02T07:49:12;18.20;99.90
1704;DHT22;849;48.780;9.216;2022-09-02T07:51:41;18.40;99.90
1704;DHT22;849;48.780;9.216;2022-09-02T07:54:09;18.40;99.90
1704;DHT22;849;48.780;9.216;2022-09-02T07:56:35;18.40;99.90
1704;DHT22;849;48.780;9.216;2022-09-02T07:59:01;18.40;99.90
1704;DHT22;849;48.780;9.216;2022-09-02T08:01:28;18.50;99.90
1704;DHT22;849;48.780;9.216;2022-09-02T08:03:54;18.60;99.90
1704;DHT22;849;48.780;9.216;2022-09-02T08:06:20;18.80;99.90
1704;DHT22;849;48.780;9.216;2022-09-02T08:08:48;18.80;99.90
1704;DHT22;849;48.780;9.216;2022-09-02T08:11:14;18.70;99.90
1704;DHT22;849;48.780;9.216;2022-09-02T08:13:40;18.70;99.90
1704;DHT22;849;48.780;9.216;2022-09-02T08:16:06;19.00;99.90
1704;DHT22;849;48.780;9.216;2022-09-02T08:18:33;19.00;99.90
1704;DHT22;849;48.780;9.216;2022-09-02T08:20:58;19.00;99.90
1704;DHT22;849;48.780;9.216;2022-09-02T08:23:24;19.00;99.90
1704;DHT22;849;48.780;9.216;2022-09-02T08:25:50;19.30;99.90
1704;DHT22;849;48.780;9.216;2022-09-02T08:28:15;19.20;99.90
1704;DHT22;849;48.780;9.216;2022-09-02T08:30:41;19.00;99.90
1704;DHT22;849;48.780;9.216;2022-09-02T08:33:07;19.00;99.90
1704;DHT22;849;48.780;9.216;2022-09-02T08:35:32;19.00;99.90
1704;DHT22;849;48.780;9.216;2022-09-02T08:37:58;19.00;99.90
1704;DHT22;849;48.780;9.216;2022-09-02T08:40:36;19.20;99.90
1704;DHT22;849;48.780;9.216;2022-09-02T08:43:07;19.20;99.90
1704;DHT22;849;48.780;9.216;2022-09-02T08:45:39;19.30;99.90
1704;DHT22;849;48.780;9.216;2022-09-02T08:50:48;19.40;98.30
1704;DHT22;849;48.780;9.216;2022-09-02T08:55:50;19.40;99.10
1704;DHT22;849;48.780;9.216;2022-09-02T08:58:18;19.70;96.70
1704;DHT22;849;48.780;9.216;2022-09-02T09:00:58;19.70;95.20
1704;DHT22;849;48.780;9.216;2022-09-02T09:06:35;19.70;94.20
1704;DHT22;849;48.780;9.216;2022-09-02T09:12:02;19.70;94.70
1704;DHT22;849;48.780;9.216;2022-09-02T09:20:06;20.00;93.80
1704;DHT22;849;48.780;9.216;2022-09-02T09:22:36;19.90;94.50
1704;DHT22;849;48.780;9.216;2022-09-02T09:25:09;20.00;93.50
1704;DHT22;849;48.780;9.216;2022-09-02T09:27:36;20.10;93.10
1704;DHT22;849;48.780;9.216;2022-09-02T09:30:02;20.20;93.20
1704;DHT22;849;48.780;9.216;2022-09-02T09:32:40;20.30;91.50
1704;DHT22;849;48.780;9.216;2022-09-02T09:35:11;20.50;90.80
1704;DHT22;849;48.780;9.216;2022-09-02T09:37:39;20.60;90.10
1704;DHT22;849;48.780;9.216;2022-09-02T09:40:26;20.70;87.20
1704;DHT22;849;48.780;9.216;2022-09-02T09:45:36;20.80;87.40
1704;DHT22;849;48.780;9.216;2022-09-02T09:48:22;21.00;82.10
1704;DHT22;849;48.780;9.216;2022-09-02T09:53:30;20.80;80.50
1704;DHT22;849;48.780;9.216;2022-09-02T10:01:31;20.60;80.20
1704;DHT22;849;48.780;9.216;2022-09-02T10:04:10;20.80;80.80
1704;DHT22;849;48.780;9.216;2022-09-02T10:06:42;20.90;76.70
1704;DHT22;849;48.780;9.216;2022-09-02T10:12:00;21.20;74.20
1704;DHT22;849;48.780;9.216;2022-09-02T10:14:52;21.10;72.60
1704;DHT22;849;48.780;9.216;2022-09-02T10:23:20;21.20;71.90
1704;DHT22;849;48.780;9.216;2022-09-02T10:26:23;21.30;68.10
1704;DHT22;849;48.780;9.216;2022-09-02T10:31:30;21.60;63.60
1704;DHT22;849;48.780;9.216;2022-09-02T10:34:05;21.60;63.90
1704;DHT22;849;48.780;9.216;2022-09-02T10:36:42;21.90;63.80
1704;DHT22;849;48.780;9.216;2022-09-02T10:42:17;22.10;61.60
1704;DHT22;849;48.780;9.216;2022-09-02T10:47:29;22.10;61.20
1704;DHT22;849;48.780;9.216;2022-09-02T10:55:49;22.30;60.80
1704;DHT22;849;48.780;9.216;2022-09-02T10:58:35;22.10;61.90
1704;DHT22;849;48.780;9.216;2022-09-02T11:01:02;22.20;63.10
1704;DHT22;849;48.780;9.216;2022-09-02T11:03:42;22.10;60.80
1704;DHT22;849;48.780;9.216;2022-09-02T11:06:12;22.10;61.40
1704;DHT22;849;48.780;9.216;2022-09-02T11:11:09;22.40;61.00
1704;DHT22;849;48.780;9.216;2022-09-02T11:13:46;22.40;60.10
1704;DHT22;849;48.780;9.216;2022-09-02T11:18:52;22.20;60.50
1704;DHT22;849;48.780;9.216;2022-09-02T11:24:18;22.40;61.40
1704;DHT22;849;48.780;9.216;2022-09-02T11:32:25;22.30;60.80
1704;DHT22;849;48.780;9.216;2022-09-02T11:34:56;22.50;61.70
1704;DHT22;849;48.780;9.216;2022-09-02T11:37:31;22.60;59.90
1704;DHT22;849;48.780;9.216;2022-09-02T11:40:08;22.50;59.50
1704;DHT22;849;48.780;9.216;2022-09-02T11:53:28;22.50;59.80
1704;DHT22;849;48.780;9.216;2022-09-02T11:56:04;22.40;60.10
1704;DHT22;849;48.780;9.216;2022-09-02T12:03:31;22.90;59.50
1704;DHT22;849;48.780;9.216;2022-09-02T12:06:18;22.80;59.50
1704;DHT22;849;48.780;9.216;2022-09-02T12:11:44;22.80;58.70
1704;DHT22;849;48.780;9.216;2022-09-02T12:17:02;23.00;59.30
1704;DHT22;849;48.780;9.216;2022-09-02T12:19:48;23.10;57.20
1704;DHT22;849;48.780;9.216;2022-09-02T12:27:44;23.30;57.10
1704;DHT22;849;48.780;9.216;2022-09-02T12:30:11;23.10;57.30
1704;DHT22;849;48.780;9.216;2022-09-02T12:35:33;23.40;56.80
1704;DHT22;849;48.780;9.216;2022-09-02T12:40:45;23.70;58.20
1704;DHT22;849;48.780;9.216;2022-09-02T12:44:13;23.70;56.30
1704;DHT22;849;48.780;9.216;2022-09-02T12:49:44;23.70;56.70
1704;DHT22;849;48.780;9.216;2022-09-02T12:52:38;23.60;57.40
1704;DHT22;849;48.780;9.216;2022-09-02T12:55:24;23.50;56.60
1704;DHT22;849;48.780;9.216;2022-09-02T12:57:50;23.50;57.60
1704;DHT22;849;48.780;9.216;2022-09-02T13:00:37;23.60;57.40
1704;DHT22;849;48.780;9.216;2022-09-02T13:03:16;23.80;58.10
1704;DHT22;849;48.780;9.216;2022-09-02T13:13:56;23.50;57.40
1704;DHT22;849;48.780;9.216;2022-09-02T13:16:43;23.60;57.50
1704;DHT22;849;48.780;9.216;2022-09-02T13:31:20;24.40;58.90
1704;DHT22;849;48.780;9.216;2022-09-02T13:33:58;24.20;58.00
1704;DHT22;849;48.780;9.216;2022-09-02T13:36:28;24.20;58.00
1704;DHT22;849;48.780;9.216;2022-09-02T13:38:55;24.10;56.70
1704;DHT22;849;48.780;9.216;2022-09-02T13:41:28;24.00;56.20
1704;DHT22;849;48.780;9.216;2022-09-02T13:44:11;24.00;55.30
1704;DHT22;849;48.780;9.216;2022-09-02T13:46:45;24.00;56.40
1704;DHT22;849;48.780;9.216;2022-09-02T13:49:21;23.90;57.90
1704;DHT22;849;48.780;9.216;2022-09-02T13:51:48;24.20;58.30
1704;DHT22;849;48.780;9.216;2022-09-02T13:54:28;24.30;57.40
1704;DHT22;849;48.780;9.216;2022-09-02T13:56:56;24.50;58.20
1704;DHT22;849;48.780;9.216;2022-09-02T14:02:23;24.40;57.20
1704;DHT22;849;48.780;9.216;2022-09-02T14:04:52;24.50;57.50
1704;DHT22;849;48.780;9.216;2022-09-02T14:07:27;24.80;58.40
1704;DHT22;849;48.780;9.216;2022-09-02T14:09:54;24.80;56.20
1704;DHT22;849;48.780;9.216;2022-09-02T14:12:23;24.80;55.70
1704;DHT22;849;48.780;9.216;2022-09-02T14:14:50;25.00;57.30
1704;DHT22;849;48.780;9.216;2022-09-02T14:19:43;25.10;55.40
1704;DHT22;849;48.780;9.216;2022-09-02T14:22:21;26.00;54.60
1704;DHT22;849;48.780;9.216;2022-09-02T14:24:47;27.50;53.10
1704;DHT22;849;48.780;9.216;2022-09-02T14:27:18;29.50;50.10
1704;DHT22;849;48.780;9.216;2022-09-02T14:29:46;32.40;45.90
1704;DHT22;849;48.780;9.216;2022-09-02T14:32:20;34.50;43.20
1704;DHT22;849;48.780;9.216;2022-09-02T14:34:47;36.80;40.30
1704;DHT22;849;48.780;9.216;2022-09-02T14:37:26;38.70;37.30
1704;DHT22;849;48.780;9.216;2022-09-02T14:40:05;40.50;35.20
1704;DHT22;849;48.780;9.216;2022-09-02T14:42:41;42.00;32.70
1704;DHT22;849;48.780;9.216;2022-09-02T14:45:09;42.50;31.10
1704;DHT22;849;48.780;9.216;2022-09-02T14:47:37;43.00;30.30
1704;DHT22;849;48.780;9.216;2022-09-02T14:50:03;43.50;30.00
1704;DHT22;849;48.780;9.216;2022-09-02T14:52:33;43.30;30.40
1704;DHT22;849;48.780;9.216;2022-09-02T14:55:01;44.20;29.50
1704;DHT22;849;48.780;9.216;2022-09-02T14:57:28;44.60;29.00
1704;DHT22;849;48.780;9.216;2022-09-02T15:00:14;44.60;28.90
1704;DHT22;849;48.780;9.216;2022-09-02T15:02:43;44.60;29.30
1704;DHT22;849;48.780;9.216;2022-09-02T15:05:12;45.40;28.60
1704;DHT22;849;48.780;9.216;2022-09-02T15:07:41;46.00;28.40
1704;DHT22;849;48.780;9.216;2022-09-02T15:10:07;46.30;27.70
1704;DHT22;849;48.780;9.216;2022-09-02T15:12:39;46.40;27.80
1704;DHT22;849;48.780;9.216;2022-09-02T15:15:07;46.60;27.60
1704;DHT22;849;48.780;9.216;2022-09-02T15:17:32;46.70;27.40
1704;DHT22;849;48.780;9.216;2022-09-02T15:19:58;47.30;27.10
1704;DHT22;849;48.780;9.216;2022-09-02T15:22:24;47.70;27.20
1704;DHT22;849;48.780;9.216;2022-09-02T15:24:50;48.30;26.60
1704;DHT22;849;48.780;9.216;2022-09-02T15:27:16;47.80;26.20
1704;DHT22;849;48.780;9.216;2022-09-02T15:29:42;47.20;26.80
1704;DHT22;849;48.780;9.216;2022-09-02T15:32:08;45.80;27.30
1704;DHT22;849;48.780;9.216;2022-09-02T15:34:34;45.60;27.40
1704;DHT22;849;48.780;9.216;2022-09-02T15:37:00;45.30;27.50
1704;DHT22;849;48.780;9.216;2022-09-02T15:39:26;44.90;27.40
1704;DHT22;849;48.780;9.216;2022-09-02T15:41:52;44.60;27.40
1704;DHT22;849;48.780;9.216;2022-09-02T15:44:21;44.40;27.70
1704;DHT22;849;48.780;9.216;2022-09-02T15:46:50;43.70;28.00
1704;DHT22;849;48.780;9.216;2022-09-02T15:49:16;43.80;27.90
1704;DHT22;849;48.780;9.216;2022-09-02T15:51:43;43.40;28.20
1704;DHT22;849;48.780;9.216;2022-09-02T15:54:11;42.30;28.50
1704;DHT22;849;48.780;9.216;2022-09-02T15:56:38;40.90;29.20
1704;DHT22;849;48.780;9.216;2022-09-02T15:59:11;39.50;29.80
1704;DHT22;849;48.780;9.216;2022-09-02T16:01:39;38.30;30.70
1704;DHT22;849;48.780;9.216;2022-09-02T16:04:06;37.00;31.70
1704;DHT22;849;48.780;9.216;2022-09-02T16:06:34;36.00;32.80
1704;DHT22;849;48.780;9.216;2022-09-02T16:09:01;35.20;33.30
1704;DHT22;849;48.780;9.216;2022-09-02T16:11:27;34.40;34.30
1704;DHT22;849;48.780;9.216;2022-09-02T16:13:53;33.70;35.00
1704;DHT22;849;48.780;9.216;2022-09-02T16:16:19;32.90;35.90
1704;DHT22;849;48.780;9.216;2022-09-02T16:18:52;31.90;37.30
1704;DHT22;849;48.780;9.216;2022-09-02T16:21:19;31.20;37.70
1704;DHT22;849;48.780;9.216;2022-09-02T16:23:45;30.50;38.50
1704;DHT22;849;48.780;9.216;2022-09-02T16:28:46;29.60;40.60
1704;DHT22;849;48.780;9.216;2022-09-02T16:31:14;29.00;42.20
1704;DHT22;849;48.780;9.216;2022-09-02T16:33:42;28.80;43.50
1704;DHT22;849;48.780;9.216;2022-09-02T16:36:09;28.50;43.30
1704;DHT22;849;48.780;9.216;2022-09-02T16:38:35;28.20;43.40
1704;DHT22;849;48.780;9.216;2022-09-02T16:41:02;28.00;43.50
1704;DHT22;849;48.780;9.216;2022-09-02T16:43:30;27.70;44.40
1704;DHT22;849;48.780;9.216;2022-09-02T16:45:58;27.50;45.50
1704;DHT22;849;48.780;9.216;2022-09-02T16:48:29;27.40;46.70
1704;DHT22;849;48.780;9.216;2022-09-02T16:51:01;27.20;46.00
1704;DHT22;849;48.780;9.216;2022-09-02T16:53:27;27.00;45.20
1704;DHT22;849;48.780;9.216;2022-09-02T16:55:53;26.90;44.80
1704;DHT22;849;48.780;9.216;2022-09-02T16:58:19;26.70;44.80
1704;DHT22;849;48.780;9.216;2022-09-02T17:00:44;26.90;46.20
1704;DHT22;849;48.780;9.216;2022-09-02T17:03:11;27.20;46.90
1704;DHT22;849;48.780;9.216;2022-09-02T17:05:37;27.10;45.10
1704;DHT22;849;48.780;9.216;2022-09-02T17:08:04;27.00;45.20
1704;DHT22;849;48.780;9.216;2022-09-02T17:10:32;27.00;45.60
1704;DHT22;849;48.780;9.216;2022-09-02T17:12:58;26.90;46.10
1704;DHT22;849;48.780;9.216;2022-09-02T17:15:25;26.90;46.90
1704;DHT22;849;48.780;9.216;2022-09-02T17:17:51;26.80;48.00
1704;DHT22;849;48.780;9.216;2022-09-02T17:20:17;26.60;47.20
1704;DHT22;849;48.780;9.216;2022-09-02T17:22:43;26.50;48.80
1704;DHT22;849;48.780;9.216;2022-09-02T17:25:09;26.40;48.90
1704;DHT22;849;48.780;9.216;2022-09-02T17:27:35;26.30;49.90
1704;DHT22;849;48.780;9.216;2022-09-02T17:30:04;26.10;49.70
1704;DHT22;849;48.780;9.216;2022-09-02T17:32:30;26.00;50.30
1704;DHT22;849;48.780;9.216;2022-09-02T17:34:56;25.70;50.00
1704;DHT22;849;48.780;9.216;2022-09-02T17:37:22;25.60;50.60
1704;DHT22;849;48.780;9.216;2022-09-02T17:39:48;25.50;50.90
1704;DHT22;849;48.780;9.216;2022-09-02T17:42:14;25.50;51.40
1704;DHT22;849;48.780;9.216;2022-09-02T17:44:40;25.40;52.10
1704;DHT22;849;48.780;9.216;2022-09-02T17:49:37;25.10;53.90
1704;DHT22;849;48.780;9.216;2022-09-02T17:52:06;24.80;53.50
1704;DHT22;849;48.780;9.216;2022-09-02T17:54:34;24.70;54.40
1704;DHT22;849;48.780;9.216;2022-09-02T18:05:25;24.10;55.70
1704;DHT22;849;48.780;9.216;2022-09-02T18:13:22;23.80;56.50
1704;DHT22;849;48.780;9.216;2022-09-02T18:18:29;23.60;56.40
1704;DHT22;849;48.780;9.216;2022-09-02T18:21:06;23.40;56.60
1704;DHT22;849;48.780;9.216;2022-09-02T18:24:03;23.30;57.10
1704;DHT22;849;48.780;9.216;2022-09-02T18:27:38;23.30;57.40
1704;DHT22;849;48.780;9.216;2022-09-02T18:30:07;23.20;57.10
1704;DHT22;849;48.780;9.216;2022-09-02T18:33:08;23.20;58.10
1704;DHT22;849;48.780;9.216;2022-09-02T18:38:28;23.00;57.70
1704;DHT22;849;48.780;9.216;2022-09-02T18:44:12;22.70;57.20
1704;DHT22;849;48.780;9.216;2022-09-02T18:46:52;22.80;57.40
1704;DHT22;849;48.780;9.216;2022-09-02T18:49:23;22.80;57.90
1704;DHT22;849;48.780;9.216;2022-09-02T18:51:54;22.70;56.90
1704;DHT22;849;48.780;9.216;2022-09-02T18:54:24;22.70;57.20
1704;DHT22;849;48.780;9.216;2022-09-02T18:57:11;22.70;57.10
1704;DHT22;849;48.780;9.216;2022-09-02T19:00:06;22.80;57.20
1704;DHT22;849;48.780;9.216;2022-09-02T19:02:46;22.70;57.10
1704;DHT22;849;48.780;9.216;2022-09-02T19:05:23;22.70;57.60